sensor_id;sensor_type;location;lat;lon;timestamp;P1;durP1;ratioP1;P2;durP2;ratioP2
59040;SDS011;44825;53.200;6.448;2023-08-12T00:00:29;8.60;;;4.68;;
59040;SDS011;44825;53.200;6.448;2023-08-12T00:02:55;11.00;;;4.95;;
59040;SDS011;44825;53.200;6.448;2023-08-12T00:05:21;7.50;;;4.20;;
59040;SDS011;44825;53.200;6.448;2023-08-12T00:07:48;9.90;;;4.95;;
59040;SDS011;44825;53.200;6.448;2023-08-12T00:10:14;9.10;;;4.15;;
59040;SDS011;44825;53.200;6.448;2023-08-12T00:12:43;7.65;;;3.88;;
59040;SDS011;44825;53.200;6.448;2023-08-12T00:15:09;7.72;;;3.88;;
59040;SDS011;44825;53.200;6.448;2023-08-12T00:17:35;10.43;;;4.05;;
59040;SDS011;44825;53.200;6.448;2023-08-12T00:20:02;7.53;;;3.50;;
59040;SDS011;44825;53.200;6.448;2023-08-12T00:22:31;9.98;;;3.45;;
59040;SDS011;44825;53.200;6.448;2023-08-12T00:24:57;10.00;;;3.63;;
59040;SDS011;44825;53.200;6.448;2023-08-12T00:27:23;9.80;;;3.80;;
59040;SDS011;44825;53.200;6.448;2023-08-12T00:29:49;7.30;;;3.38;;
59040;SDS011;44825;53.200;6.448;2023-08-12T00:32:15;8.20;;;3.67;;
59040;SDS011;44825;53.200;6.448;2023-08-12T00:34:41;6.30;;;3.38;;
59040;SDS011;44825;53.200;6.448;2023-08-12T00:37:10;6.28;;;3.00;;
59040;SDS011;44825;53.200;6.448;2023-08-12T00:39:36;7.03;;;2.78;;
59040;SDS011;44825;53.200;6.448;2023-08-12T00:42:02;5.97;;;2.72;;
59040;SDS011;44825;53.200;6.448;2023-08-12T00:44:28;8.77;;;3.67;;
59040;SDS011;44825;53.200;6.448;2023-08-12T00:46:54;6.22;;;3.05;;
59040;SDS011;44825;53.200;6.448;2023-08-12T00:49:20;8.07;;;3.05;;
59040;SDS011;44825;53.200;6.448;2023-08-12T00:51:46;7.10;;;2.60;;
59040;SDS011;44825;53.200;6.448;2023-08-12T00:54:14;7.05;;;2.63;;
59040;SDS011;44825;53.200;6.448;2023-08-12T00:56:41;5.32;;;2.28;;
59040;SDS011;44825;53.200;6.448;2023-08-12T00:59:08;7.50;;;2.70;;
59040;SDS011;44825;53.200;6.448;2023-08-12T01:01:35;6.57;;;2.60;;
59040;SDS011;44825;53.200;6.448;2023-08-12T01:04:01;7.80;;;2.35;;
59040;SDS011;44825;53.200;6.448;2023-08-12T01:06:27;7.05;;;2.67;;
59040;SDS011;44825;53.200;6.448;2023-08-12T01:08:56;5.70;;;2.50;;
59040;SDS011;44825;53.200;6.448;2023-08-12T01:12:09;6.35;;;2.55;;
59040;SDS011;44825;53.200;6.448;2023-08-12T01:16:58;8.45;;;3.08;;
59040;SDS011;44825;53.200;6.448;2023-08-12T01:19:35;7.20;;;3.03;;
59040;SDS011;44825;53.200;6.448;2023-08-12T01:22:01;6.05;;;2.75;;
59040;SDS011;44825;53.200;6.448;2023-08-12T01:24:33;6.05;;;2.50;;
59040;SDS011;44825;53.200;6.448;2023-08-12T01:27:00;8.07;;;2.35;;
59040;SDS011;44825;53.200;6.448;2023-08-12T01:29:26;7.45;;;2.67;;
59040;SDS011;44825;53.200;6.448;2023-08-12T01:31:55;6.00;;;2.28;;
59040;SDS011;44825;53.200;6.448;2023-08-12T01:34:42;6.85;;;2.65;;
59040;SDS011;44825;53.200;6.448;2023-08-12T01:37:11;8.20;;;3.05;;
59040;SDS011;44825;53.200;6.448;2023-08-12T01:39:40;6.25;;;3.05;;
59040;SDS011;44825;53.200;6.448;2023-08-12T01:42:08;7.60;;;2.75;;
59040;SDS011;44825;53.200;6.448;2023-08-12T01:44:34;7.60;;;2.78;;
59040;SDS011;44825;53.200;6.448;2023-08-12T01:47:00;6.75;;;2.88;;
59040;SDS011;44825;53.200;6.448;2023-08-12T01:49:27;7.72;;;3.40;;
59040;SDS011;44825;53.200;6.448;2023-08-12T01:51:53;8.35;;;3.47;;
59040;SDS011;44825;53.200;6.448;2023-08-12T01:54:19;8.07;;;2.92;;
59040;SDS011;44825;53.200;6.448;2023-08-12T01:56:45;6.93;;;3.28;;
59040;SDS011;44825;53.200;6.448;2023-08-12T01:59:11;7.55;;;3.05;;
59040;SDS011;44825;53.200;6.448;2023-08-12T02:01:37;7.95;;;3.22;;
59040;SDS011;44825;53.200;6.448;2023-08-12T02:04:03;7.40;;;3.53;;
59040;SDS011;44825;53.200;6.448;2023-08-12T02:06:29;9.30;;;3.55;;
59040;SDS011;44825;53.200;6.448;2023-08-12T02:08:56;10.95;;;3.95;;
59040;SDS011;44825;53.200;6.448;2023-08-12T02:11:22;7.18;;;3.42;;
59040;SDS011;44825;53.200;6.448;2023-08-12T02:13:48;11.95;;;4.60;;
59040;SDS011;44825;53.200;6.448;2023-08-12T02:16:14;8.98;;;3.65;;
59040;SDS011;44825;53.200;6.448;2023-08-12T02:18:40;9.80;;;4.60;;
59040;SDS011;44825;53.200;6.448;2023-08-12T02:21:06;7.78;;;4.05;;
59040;SDS011;44825;53.200;6.448;2023-08-12T02:23:32;6.95;;;3.97;;
59040;SDS011;44825;53.200;6.448;2023-08-12T02:25:58;8.18;;;4.78;;
59040;SDS011;44825;53.200;6.448;2023-08-12T02:28:25;7.50;;;4.35;;
59040;SDS011;44825;53.200;6.448;2023-08-12T02:30:51;10.20;;;4.90;;
59040;SDS011;44825;53.200;6.448;2023-08-12T02:33:17;8.52;;;4.93;;
59040;SDS011;44825;53.200;6.448;2023-08-12T02:35:43;10.88;;;5.20;;
59040;SDS011;44825;53.200;6.448;2023-08-12T02:38:11;8.55;;;4.82;;
59040;SDS011;44825;53.200;6.448;2023-08-12T02:40:37;7.40;;;4.80;;
59040;SDS011;44825;53.200;6.448;2023-08-12T02:43:03;8.70;;;4.93;;
59040;SDS011;44825;53.200;6.448;2023-08-12T02:45:30;9.38;;;5.07;;
59040;SDS011;44825;53.200;6.448;2023-08-12T02:47:58;7.40;;;4.82;;
59040;SDS011;44825;53.200;6.448;2023-08-12T02:50:24;8.65;;;4.47;;
59040;SDS011;44825;53.200;6.448;2023-08-12T02:52:50;9.68;;;4.95;;
59040;SDS011;44825;53.200;6.448;2023-08-12T02:55:16;9.35;;;4.97;;
59040;SDS011;44825;53.200;6.448;2023-08-12T02:57:42;9.63;;;5.25;;
59040;SDS011;44825;53.200;6.448;2023-08-12T03:00:09;9.38;;;4.88;;
59040;SDS011;44825;53.200;6.448;2023-08-12T03:02:35;10.18;;;5.55;;
59040;SDS011;44825;53.200;6.448;2023-08-12T03:05:01;8.65;;;4.95;;
59040;SDS011;44825;53.200;6.448;2023-08-12T03:07:28;8.45;;;5.47;;
59040;SDS011;44825;53.200;6.448;2023-08-12T03:09:54;7.88;;;4.97;;
59040;SDS011;44825;53.200;6.448;2023-08-12T03:12:20;8.63;;;5.72;;
59040;SDS011;44825;53.200;6.448;2023-08-12T03:14:46;10.05;;;5.60;;
59040;SDS011;44825;53.200;6.448;2023-08-12T03:17:12;8.82;;;5.18;;
59040;SDS011;44825;53.200;6.448;2023-08-12T03:19:38;9.55;;;5.20;;
59040;SDS011;44825;53.200;6.448;2023-08-12T03:22:04;10.30;;;5.13;;
59040;SDS011;44825;53.200;6.448;2023-08-12T03:24:30;9.98;;;5.43;;
59040;SDS011;44825;53.200;6.448;2023-08-12T03:26:56;10.30;;;6.07;;
59040;SDS011;44825;53.200;6.448;2023-08-12T03:29:22;11.02;;;6.18;;
59040;SDS011;44825;53.200;6.448;2023-08-12T03:31:48;9.70;;;5.72;;
59040;SDS011;44825;53.200;6.448;2023-08-12T03:34:14;10.20;;;6.18;;
59040;SDS011;44825;53.200;6.448;2023-08-12T03:36:40;9.88;;;6.10;;
59040;SDS011;44825;53.200;6.448;2023-08-12T03:39:06;11.43;;;6.13;;
59040;SDS011;44825;53.200;6.448;2023-08-12T03:41:33;9.45;;;5.72;;
59040;SDS011;44825;53.200;6.448;2023-08-12T03:43:59;10.32;;;5.82;;
59040;SDS011;44825;53.200;6.448;2023-08-12T03:46:25;11.18;;;6.60;;
59040;SDS011;44825;53.200;6.448;2023-08-12T03:48:51;11.00;;;6.47;;
59040;SDS011;44825;53.200;6.448;2023-08-12T03:51:17;9.93;;;5.78;;
59040;SDS011;44825;53.200;6.448;2023-08-12T03:53:43;12.15;;;6.70;;
59040;SDS011;44825;53.200;6.448;2023-08-12T03:56:09;11.32;;;6.53;;
59040;SDS011;44825;53.200;6.448;2023-08-12T03:58:39;10.55;;;6.70;;
59040;SDS011;44825;53.200;6.448;2023-08-12T04:01:05;11.90;;;6.32;;
59040;SDS011;44825;53.200;6.448;2023-08-12T04:03:31;12.75;;;6.05;;
59040;SDS011;44825;53.200;6.448;2023-08-12T04:05:57;12.45;;;7.10;;
59040;SDS011;44825;53.200;6.448;2023-08-12T04:08:24;10.75;;;6.38;;
59040;SDS011;44825;53.200;6.448;2023-08-12T04:10:50;12.63;;;7.40;;
59040;SDS011;44825;53.200;6.448;2023-08-12T04:13:16;12.02;;;7.10;;
59040;SDS011;44825;53.200;6.448;2023-08-12T04:15:47;15.15;;;7.57;;
59040;SDS011;44825;53.200;6.448;2023-08-12T04:18:13;12.90;;;7.55;;
59040;SDS011;44825;53.200;6.448;2023-08-12T04:20:39;13.48;;;7.95;;
59040;SDS011;44825;53.200;6.448;2023-08-12T04:23:05;10.93;;;7.32;;
59040;SDS011;44825;53.200;6.448;2023-08-12T04:25:31;15.00;;;8.23;;
59040;SDS011;44825;53.200;6.448;2023-08-12T04:27:57;13.05;;;8.02;;
59040;SDS011;44825;53.200;6.448;2023-08-12T04:30:24;11.48;;;7.13;;
59040;SDS011;44825;53.200;6.448;2023-08-12T04:32:51;12.05;;;7.55;;
59040;SDS011;44825;53.200;6.448;2023-08-12T04:35:17;13.50;;;8.10;;
59040;SDS011;44825;53.200;6.448;2023-08-12T04:37:43;13.43;;;8.43;;
59040;SDS011;44825;53.200;6.448;2023-08-12T04:40:09;13.63;;;8.48;;
59040;SDS011;44825;53.200;6.448;2023-08-12T04:42:36;11.73;;;7.40;;
59040;SDS011;44825;53.200;6.448;2023-08-12T04:45:02;12.27;;;7.72;;
59040;SDS011;44825;53.200;6.448;2023-08-12T04:47:28;14.68;;;8.10;;
59040;SDS011;44825;53.200;6.448;2023-08-12T04:49:54;13.35;;;8.07;;
59040;SDS011;44825;53.200;6.448;2023-08-12T04:52:20;13.30;;;8.43;;
59040;SDS011;44825;53.200;6.448;2023-08-12T04:54:47;12.10;;;7.32;;
59040;SDS011;44825;53.200;6.448;2023-08-12T04:57:13;12.75;;;7.82;;
59040;SDS011;44825;53.200;6.448;2023-08-12T04:59:39;12.98;;;7.80;;
59040;SDS011;44825;53.200;6.448;2023-08-12T05:02:05;11.43;;;7.03;;
59040;SDS011;44825;53.200;6.448;2023-08-12T05:04:31;11.45;;;6.65;;
59040;SDS011;44825;53.200;6.448;2023-08-12T05:06:57;12.52;;;7.00;;
59040;SDS011;44825;53.200;6.448;2023-08-12T05:09:23;11.38;;;7.32;;
59040;SDS011;44825;53.200;6.448;2023-08-12T05:11:49;15.90;;;8.40;;
59040;SDS011;44825;53.200;6.448;2023-08-12T05:14:15;15.13;;;8.10;;
59040;SDS011;44825;53.200;6.448;2023-08-12T05:16:41;13.80;;;7.60;;
59040;SDS011;44825;53.200;6.448;2023-08-12T05:19:07;13.43;;;7.78;;
59040;SDS011;44825;53.200;6.448;2023-08-12T05:21:33;12.65;;;7.15;;
59040;SDS011;44825;53.200;6.448;2023-08-12T05:23:59;11.05;;;7.60;;
59040;SDS011;44825;53.200;6.448;2023-08-12T05:26:26;11.75;;;6.88;;
59040;SDS011;44825;53.200;6.448;2023-08-12T05:28:52;12.30;;;7.55;;
59040;SDS011;44825;53.200;6.448;2023-08-12T05:31:18;11.55;;;6.72;;
59040;SDS011;44825;53.200;6.448;2023-08-12T05:33:44;11.20;;;6.75;;
59040;SDS011;44825;53.200;6.448;2023-08-12T05:36:10;12.75;;;7.38;;
59040;SDS011;44825;53.200;6.448;2023-08-12T05:38:36;12.13;;;7.90;;
59040;SDS011;44825;53.200;6.448;2023-08-12T05:41:02;12.63;;;7.28;;
59040;SDS011;44825;53.200;6.448;2023-08-12T05:43:32;15.70;;;7.45;;
59040;SDS011;44825;53.200;6.448;2023-08-12T05:45:58;11.18;;;7.20;;
59040;SDS011;44825;53.200;6.448;2023-08-12T05:48:24;12.75;;;7.00;;
59040;SDS011;44825;53.200;6.448;2023-08-12T05:50:50;12.70;;;7.40;;
59040;SDS011;44825;53.200;6.448;2023-08-12T05:53:16;13.90;;;7.18;;
59040;SDS011;44825;53.200;6.448;2023-08-12T05:55:42;10.30;;;6.78;;
59040;SDS011;44825;53.200;6.448;2023-08-12T05:58:08;14.20;;;7.40;;
59040;SDS011;44825;53.200;6.448;2023-08-12T06:00:34;18.73;;;8.00;;
59040;SDS011;44825;53.200;6.448;2023-08-12T06:03:00;15.15;;;8.30;;
59040;SDS011;44825;53.200;6.448;2023-08-12T06:05:26;12.48;;;7.93;;
59040;SDS011;44825;53.200;6.448;2023-08-12T06:07:52;15.70;;;7.97;;
59040;SDS011;44825;53.200;6.448;2023-08-12T06:10:19;11.98;;;7.18;;
59040;SDS011;44825;53.200;6.448;2023-08-12T06:12:45;10.25;;;7.20;;
59040;SDS011;44825;53.200;6.448;2023-08-12T06:15:11;14.32;;;7.53;;
59040;SDS011;44825;53.200;6.448;2023-08-12T06:17:37;15.85;;;7.90;;
59040;SDS011;44825;53.200;6.448;2023-08-12T06:20:03;18.38;;;8.35;;
59040;SDS011;44825;53.200;6.448;2023-08-12T06:22:29;14.02;;;7.72;;
59040;SDS011;44825;53.200;6.448;2023-08-12T06:24:55;14.95;;;7.85;;
59040;SDS011;44825;53.200;6.448;2023-08-12T06:27:21;13.02;;;8.30;;
59040;SDS011;44825;53.200;6.448;2023-08-12T06:29:47;13.05;;;8.32;;
59040;SDS011;44825;53.200;6.448;2023-08-12T06:32:13;11.77;;;7.72;;
59040;SDS011;44825;53.200;6.448;2023-08-12T06:34:40;11.25;;;7.75;;
59040;SDS011;44825;53.200;6.448;2023-08-12T06:37:06;12.80;;;8.05;;
59040;SDS011;44825;53.200;6.448;2023-08-12T06:39:32;13.55;;;7.53;;
59040;SDS011;44825;53.200;6.448;2023-08-12T06:42:01;13.82;;;8.07;;
59040;SDS011;44825;53.200;6.448;2023-08-12T06:44:28;15.32;;;8.88;;
59040;SDS011;44825;53.200;6.448;2023-08-12T06:46:54;13.43;;;7.65;;
59040;SDS011;44825;53.200;6.448;2023-08-12T06:49:20;13.68;;;8.23;;
59040;SDS011;44825;53.200;6.448;2023-08-12T06:51:46;17.52;;;8.77;;
59040;SDS011;44825;53.200;6.448;2023-08-12T06:54:12;14.68;;;8.98;;
59040;SDS011;44825;53.200;6.448;2023-08-12T06:56:38;12.43;;;8.95;;
59040;SDS011;44825;53.200;6.448;2023-08-12T06:59:04;18.05;;;9.35;;
59040;SDS011;44825;53.200;6.448;2023-08-12T07:01:30;13.55;;;8.48;;
59040;SDS011;44825;53.200;6.448;2023-08-12T07:03:56;14.15;;;9.40;;
59040;SDS011;44825;53.200;6.448;2023-08-12T07:06:22;16.95;;;9.60;;
59040;SDS011;44825;53.200;6.448;2023-08-12T07:08:48;12.30;;;9.32;;
59040;SDS011;44825;53.200;6.448;2023-08-12T07:11:14;17.15;;;10.13;;
59040;SDS011;44825;53.200;6.448;2023-08-12T07:13:41;18.30;;;8.60;;
59040;SDS011;44825;53.200;6.448;2023-08-12T07:16:08;16.10;;;9.00;;
59040;SDS011;44825;53.200;6.448;2023-08-12T07:18:34;18.05;;;9.85;;
59040;SDS011;44825;53.200;6.448;2023-08-12T07:21:00;16.40;;;9.10;;
59040;SDS011;44825;53.200;6.448;2023-08-12T07:23:26;14.88;;;10.25;;
59040;SDS011;44825;53.200;6.448;2023-08-12T07:25:52;19.52;;;10.05;;
59040;SDS011;44825;53.200;6.448;2023-08-12T07:28:18;16.88;;;10.02;;
59040;SDS011;44825;53.200;6.448;2023-08-12T07:30:44;15.77;;;9.70;;
59040;SDS011;44825;53.200;6.448;2023-08-12T07:33:10;18.08;;;10.18;;
59040;SDS011;44825;53.200;6.448;2023-08-12T07:35:36;16.52;;;9.85;;
59040;SDS011;44825;53.200;6.448;2023-08-12T07:38:02;22.77;;;10.40;;
59040;SDS011;44825;53.200;6.448;2023-08-12T07:40:29;18.40;;;11.25;;
59040;SDS011;44825;53.200;6.448;2023-08-12T07:42:55;15.50;;;10.13;;
59040;SDS011;44825;53.200;6.448;2023-08-12T07:45:21;17.55;;;11.18;;
59040;SDS011;44825;53.200;6.448;2023-08-12T07:47:48;18.38;;;10.93;;
59040;SDS011;44825;53.200;6.448;2023-08-12T07:50:14;20.90;;;11.38;;
59040;SDS011;44825;53.200;6.448;2023-08-12T07:52:41;17.67;;;10.90;;
59040;SDS011;44825;53.200;6.448;2023-08-12T07:55:07;17.88;;;11.82;;
59040;SDS011;44825;53.200;6.448;2023-08-12T07:57:33;20.77;;;11.68;;
59040;SDS011;44825;53.200;6.448;2023-08-12T07:59:59;21.55;;;12.43;;
59040;SDS011;44825;53.200;6.448;2023-08-12T08:02:25;22.15;;;13.05;;
59040;SDS011;44825;53.200;6.448;2023-08-12T08:04:51;21.20;;;12.85;;
59040;SDS011;44825;53.200;6.448;2023-08-12T08:07:17;20.40;;;12.40;;
59040;SDS011;44825;53.200;6.448;2023-08-12T08:09:43;17.35;;;11.95;;
59040;SDS011;44825;53.200;6.448;2023-08-12T08:12:10;18.02;;;10.73;;
59040;SDS011;44825;53.200;6.448;2023-08-12T08:14:36;21.92;;;12.63;;
59040;SDS011;44825;53.200;6.448;2023-08-12T08:17:03;17.80;;;11.70;;
59040;SDS011;44825;53.200;6.448;2023-08-12T08:19:29;25.15;;;12.45;;
59040;SDS011;44825;53.200;6.448;2023-08-12T08:21:56;18.23;;;11.63;;
59040;SDS011;44825;53.200;6.448;2023-08-12T08:24:23;15.80;;;10.93;;
59040;SDS011;44825;53.200;6.448;2023-08-12T08:26:49;18.25;;;11.07;;
59040;SDS011;44825;53.200;6.448;2023-08-12T08:29:15;17.08;;;10.82;;
59040;SDS011;44825;53.200;6.448;2023-08-12T08:31:41;18.13;;;11.95;;
59040;SDS011;44825;53.200;6.448;2023-08-12T08:34:07;18.17;;;11.18;;
59040;SDS011;44825;53.200;6.448;2023-08-12T08:36:34;18.10;;;11.20;;
59040;SDS011;44825;53.200;6.448;2023-08-12T08:39:01;19.80;;;11.57;;
59040;SDS011;44825;53.200;6.448;2023-08-12T08:41:28;17.08;;;11.38;;
59040;SDS011;44825;53.200;6.448;2023-08-12T08:43:56;16.00;;;10.82;;
59040;SDS011;44825;53.200;6.448;2023-08-12T08:46:25;16.70;;;12.25;;
59040;SDS011;44825;53.200;6.448;2023-08-12T08:48:51;22.13;;;12.90;;
59040;SDS011;44825;53.200;6.448;2023-08-12T08:51:17;19.52;;;12.85;;
59040;SDS011;44825;53.200;6.448;2023-08-12T08:53:43;19.10;;;13.02;;
59040;SDS011;44825;53.200;6.448;2023-08-12T08:56:09;20.48;;;13.07;;
59040;SDS011;44825;53.200;6.448;2023-08-12T08:58:38;22.15;;;14.27;;
59040;SDS011;44825;53.200;6.448;2023-08-12T09:01:05;22.77;;;14.07;;
59040;SDS011;44825;53.200;6.448;2023-08-12T09:03:31;24.10;;;14.88;;
59040;SDS011;44825;53.200;6.448;2023-08-12T09:05:58;21.05;;;14.75;;
59040;SDS011;44825;53.200;6.448;2023-08-12T09:08:24;21.02;;;14.38;;
59040;SDS011;44825;53.200;6.448;2023-08-12T09:10:51;24.58;;;15.80;;
59040;SDS011;44825;53.200;6.448;2023-08-12T09:13:18;24.13;;;15.75;;
59040;SDS011;44825;53.200;6.448;2023-08-12T09:15:44;20.33;;;14.02;;
59040;SDS011;44825;53.200;6.448;2023-08-12T09:18:10;21.65;;;15.73;;
59040;SDS011;44825;53.200;6.448;2023-08-12T09:20:36;24.25;;;16.08;;
59040;SDS011;44825;53.200;6.448;2023-08-12T09:23:02;19.02;;;15.75;;
59040;SDS011;44825;53.200;6.448;2023-08-12T09:25:29;22.15;;;15.90;;
59040;SDS011;44825;53.200;6.448;2023-08-12T09:27:55;19.63;;;15.20;;
59040;SDS011;44825;53.200;6.448;2023-08-12T09:30:24;23.30;;;15.95;;
59040;SDS011;44825;53.200;6.448;2023-08-12T09:32:58;22.90;;;17.52;;
59040;SDS011;44825;53.200;6.448;2023-08-12T09:35:30;25.02;;;16.48;;
59040;SDS011;44825;53.200;6.448;2023-08-12T09:37:57;21.95;;;16.63;;
59040;SDS011;44825;53.200;6.448;2023-08-12T09:40:24;20.75;;;15.10;;
59040;SDS011;44825;53.200;6.448;2023-08-12T09:42:50;26.90;;;16.98;;
59040;SDS011;44825;53.200;6.448;2023-08-12T09:45:16;24.48;;;17.55;;
59040;SDS011;44825;53.200;6.448;2023-08-12T09:47:45;24.42;;;17.98;;
59040;SDS011;44825;53.200;6.448;2023-08-12T09:50:11;24.55;;;16.95;;
59040;SDS011;44825;53.200;6.448;2023-08-12T09:52:39;26.48;;;17.75;;
59040;SDS011;44825;53.200;6.448;2023-08-12T09:55:05;23.42;;;16.70;;
59040;SDS011;44825;53.200;6.448;2023-08-12T09:57:32;26.25;;;16.38;;
59040;SDS011;44825;53.200;6.448;2023-08-12T09:59:59;24.00;;;15.73;;
59040;SDS011;44825;53.200;6.448;2023-08-12T10:02:26;30.05;;;19.20;;
59040;SDS011;44825;53.200;6.448;2023-08-12T10:04:53;20.10;;;14.98;;
59040;SDS011;44825;53.200;6.448;2023-08-12T10:07:21;24.20;;;15.40;;
59040;SDS011;44825;53.200;6.448;2023-08-12T10:09:48;22.67;;;15.38;;
59040;SDS011;44825;53.200;6.448;2023-08-12T10:12:14;20.90;;;13.15;;
59040;SDS011;44825;53.200;6.448;2023-08-12T10:14:41;17.05;;;13.20;;
59040;SDS011;44825;53.200;6.448;2023-08-12T10:17:08;18.35;;;13.60;;
59040;SDS011;44825;53.200;6.448;2023-08-12T10:19:34;17.90;;;13.40;;
59040;SDS011;44825;53.200;6.448;2023-08-12T10:22:02;17.92;;;12.75;;
59040;SDS011;44825;53.200;6.448;2023-08-12T10:24:28;16.67;;;12.00;;
59040;SDS011;44825;53.200;6.448;2023-08-12T10:26:55;27.33;;;14.10;;
59040;SDS011;44825;53.200;6.448;2023-08-12T10:29:24;26.40;;;14.43;;
59040;SDS011;44825;53.200;6.448;2023-08-12T10:31:50;26.75;;;16.33;;
59040;SDS011;44825;53.200;6.448;2023-08-12T10:34:26;19.40;;;13.07;;
59040;SDS011;44825;53.200;6.448;2023-08-12T10:36:56;23.50;;;14.30;;
59040;SDS011;44825;53.200;6.448;2023-08-12T10:39:28;19.10;;;13.50;;
59040;SDS011;44825;53.200;6.448;2023-08-12T10:41:55;25.42;;;15.68;;
59040;SDS011;44825;53.200;6.448;2023-08-12T10:44:21;26.27;;;15.23;;
59040;SDS011;44825;53.200;6.448;2023-08-12T10:46:52;17.77;;;11.60;;
59040;SDS011;44825;53.200;6.448;2023-08-12T10:49:19;15.00;;;10.00;;
59040;SDS011;44825;53.200;6.448;2023-08-12T10:51:47;15.95;;;10.35;;
59040;SDS011;44825;53.200;6.448;2023-08-12T10:54:17;12.88;;;8.60;;
59040;SDS011;44825;53.200;6.448;2023-08-12T11:02:16;6.60;;;4.03;;
59040;SDS011;44825;53.200;6.448;2023-08-12T11:04:43;7.07;;;3.45;;
59040;SDS011;44825;53.200;6.448;2023-08-12T11:07:15;7.97;;;3.47;;
59040;SDS011;44825;53.200;6.448;2023-08-12T11:09:41;6.18;;;3.00;;
59040;SDS011;44825;53.200;6.448;2023-08-12T11:12:08;5.35;;;2.83;;
59040;SDS011;44825;53.200;6.448;2023-08-12T11:17:35;8.05;;;3.85;;
59040;SDS011;44825;53.200;6.448;2023-08-12T11:20:02;7.90;;;3.20;;
59040;SDS011;44825;53.200;6.448;2023-08-12T11:22:32;5.82;;;3.35;;
59040;SDS011;44825;53.200;6.448;2023-08-12T11:24:59;6.90;;;3.50;;
59040;SDS011;44825;53.200;6.448;2023-08-12T11:27:26;7.65;;;3.58;;
59040;SDS011;44825;53.200;6.448;2023-08-12T11:29:52;7.85;;;4.43;;
59040;SDS011;44825;53.200;6.448;2023-08-12T11:32:19;8.43;;;4.22;;
59040;SDS011;44825;53.200;6.448;2023-08-12T11:34:45;6.50;;;4.32;;
59040;SDS011;44825;53.200;6.448;2023-08-12T11:37:11;6.45;;;3.38;;
59040;SDS011;44825;53.200;6.448;2023-08-12T11:39:38;13.73;;;3.63;;
59040;SDS011;44825;53.200;6.448;2023-08-12T11:42:04;10.82;;;3.38;;
59040;SDS011;44825;53.200;6.448;2023-08-12T11:44:30;9.98;;;2.78;;
59040;SDS011;44825;53.200;6.448;2023-08-12T11:46:56;12.45;;;3.13;;
59040;SDS011;44825;53.200;6.448;2023-08-12T11:49:22;8.63;;;3.35;;
59040;SDS011;44825;53.200;6.448;2023-08-12T11:51:48;5.85;;;2.92;;
59040;SDS011;44825;53.200;6.448;2023-08-12T11:54:15;6.70;;;2.53;;
59040;SDS011;44825;53.200;6.448;2023-08-12T11:56:41;6.30;;;2.53;;
59040;SDS011;44825;53.200;6.448;2023-08-12T11:59:07;8.50;;;3.17;;
59040;SDS011;44825;53.200;6.448;2023-08-12T12:01:34;9.63;;;3.13;;
59040;SDS011;44825;53.200;6.448;2023-08-12T12:04:00;5.45;;;2.20;;
59040;SDS011;44825;53.200;6.448;2023-08-12T12:06:30;7.63;;;2.45;;
59040;SDS011;44825;53.200;6.448;2023-08-12T12:08:59;7.07;;;2.30;;
59040;SDS011;44825;53.200;6.448;2023-08-12T12:11:29;7.45;;;2.47;;
59040;SDS011;44825;53.200;6.448;2023-08-12T12:13:55;7.32;;;2.15;;
59040;SDS011;44825;53.200;6.448;2023-08-12T12:16:21;9.20;;;2.80;;
59040;SDS011;44825;53.200;6.448;2023-08-12T12:18:47;7.35;;;2.20;;
59040;SDS011;44825;53.200;6.448;2023-08-12T12:21:19;7.28;;;2.60;;
59040;SDS011;44825;53.200;6.448;2023-08-12T12:26:12;4.53;;;1.90;;
59040;SDS011;44825;53.200;6.448;2023-08-12T12:28:38;8.40;;;2.53;;
59040;SDS011;44825;53.200;6.448;2023-08-12T12:31:05;5.63;;;2.13;;
59040;SDS011;44825;53.200;6.448;2023-08-12T12:33:33;12.75;;;2.85;;
59040;SDS011;44825;53.200;6.448;2023-08-12T12:35:59;6.53;;;2.28;;
59040;SDS011;44825;53.200;6.448;2023-08-12T12:38:25;7.53;;;2.47;;
59040;SDS011;44825;53.200;6.448;2023-08-12T12:40:51;10.63;;;3.13;;
59040;SDS011;44825;53.200;6.448;2023-08-12T12:43:17;10.52;;;2.95;;
59040;SDS011;44825;53.200;6.448;2023-08-12T12:45:43;8.43;;;2.60;;
59040;SDS011;44825;53.200;6.448;2023-08-12T12:48:09;8.00;;;2.20;;
59040;SDS011;44825;53.200;6.448;2023-08-12T12:50:35;9.40;;;2.22;;
59040;SDS011;44825;53.200;6.448;2023-08-12T12:53:02;7.78;;;2.20;;
59040;SDS011;44825;53.200;6.448;2023-08-12T12:55:28;7.95;;;2.70;;
59040;SDS011;44825;53.200;6.448;2023-08-12T12:57:54;7.93;;;2.47;;
59040;SDS011;44825;53.200;6.448;2023-08-12T13:00:21;8.95;;;2.40;;
59040;SDS011;44825;53.200;6.448;2023-08-12T13:02:47;9.57;;;2.60;;
59040;SDS011;44825;53.200;6.448;2023-08-12T13:05:13;9.00;;;2.80;;
59040;SDS011;44825;53.200;6.448;2023-08-12T13:07:39;8.80;;;2.60;;
59040;SDS011;44825;53.200;6.448;2023-08-12T13:10:05;9.38;;;2.50;;
59040;SDS011;44825;53.200;6.448;2023-08-12T13:12:32;8.63;;;2.30;;
59040;SDS011;44825;53.200;6.448;2023-08-12T13:14:58;8.40;;;2.53;;
59040;SDS011;44825;53.200;6.448;2023-08-12T13:17:24;11.93;;;2.97;;
59040;SDS011;44825;53.200;6.448;2023-08-12T13:19:50;11.70;;;3.35;;
59040;SDS011;44825;53.200;6.448;2023-08-12T13:22:16;11.43;;;3.05;;
59040;SDS011;44825;53.200;6.448;2023-08-12T13:24:45;10.05;;;3.58;;
59040;SDS011;44825;53.200;6.448;2023-08-12T13:27:11;12.68;;;3.35;;
59040;SDS011;44825;53.200;6.448;2023-08-12T13:29:38;11.43;;;3.70;;
59040;SDS011;44825;53.200;6.448;2023-08-12T13:32:04;8.48;;;3.03;;
59040;SDS011;44825;53.200;6.448;2023-08-12T13:34:30;9.50;;;3.35;;
59040;SDS011;44825;53.200;6.448;2023-08-12T13:36:57;9.60;;;3.47;;
59040;SDS011;44825;53.200;6.448;2023-08-12T13:39:23;10.00;;;3.17;;
59040;SDS011;44825;53.200;6.448;2023-08-12T13:41:49;11.88;;;3.60;;
59040;SDS011;44825;53.200;6.448;2023-08-12T13:44:15;9.77;;;3.03;;
59040;SDS011;44825;53.200;6.448;2023-08-12T13:46:41;8.85;;;2.92;;
59040;SDS011;44825;53.200;6.448;2023-08-12T13:49:07;12.32;;;3.38;;
59040;SDS011;44825;53.200;6.448;2023-08-12T13:51:33;10.93;;;3.65;;
59040;SDS011;44825;53.200;6.448;2023-08-12T13:53:59;12.77;;;3.60;;
59040;SDS011;44825;53.200;6.448;2023-08-12T13:56:25;12.35;;;3.58;;
59040;SDS011;44825;53.200;6.448;2023-08-12T13:58:51;13.77;;;3.05;;
59040;SDS011;44825;53.200;6.448;2023-08-12T14:01:17;11.68;;;3.67;;
59040;SDS011;44825;53.200;6.448;2023-08-12T14:03:43;9.13;;;2.47;;
59040;SDS011;44825;53.200;6.448;2023-08-12T14:06:09;9.43;;;2.28;;
59040;SDS011;44825;53.200;6.448;2023-08-12T14:08:36;6.10;;;1.75;;
59040;SDS011;44825;53.200;6.448;2023-08-12T14:11:02;9.55;;;2.13;;
59040;SDS011;44825;53.200;6.448;2023-08-12T14:13:28;13.23;;;2.70;;
59040;SDS011;44825;53.200;6.448;2023-08-12T14:15:54;8.38;;;2.30;;
59040;SDS011;44825;53.200;6.448;2023-08-12T14:18:20;8.77;;;2.28;;
59040;SDS011;44825;53.200;6.448;2023-08-12T14:20:46;10.93;;;2.17;;
59040;SDS011;44825;53.200;6.448;2023-08-12T14:23:12;10.77;;;2.53;;
59040;SDS011;44825;53.200;6.448;2023-08-12T14:25:39;8.23;;;1.98;;
59040;SDS011;44825;53.200;6.448;2023-08-12T14:28:05;8.27;;;2.17;;
59040;SDS011;44825;53.200;6.448;2023-08-12T14:30:31;9.02;;;1.98;;
59040;SDS011;44825;53.200;6.448;2023-08-12T14:32:57;7.75;;;2.13;;
59040;SDS011;44825;53.200;6.448;2023-08-12T14:35:24;9.13;;;2.60;;
59040;SDS011;44825;53.200;6.448;2023-08-12T14:37:50;8.68;;;2.28;;
59040;SDS011;44825;53.200;6.448;2023-08-12T14:40:16;11.50;;;2.50;;
59040;SDS011;44825;53.200;6.448;2023-08-12T14:42:42;9.82;;;2.20;;
59040;SDS011;44825;53.200;6.448;2023-08-12T14:45:08;7.97;;;2.00;;